createdAt,value
2017-04-19T00:00:12.101Z,1
2017-04-19T00:00:30.740Z,1
2017-04-19T00:00:49.376Z,1
2017-04-19T00:01:08.010Z,1
2017-04-19T00:01:26.640Z,1
2017-04-19T00:01:45.275Z,1
2017-04-19T00:02:03.912Z,1
2017-04-19T00:02:22.550Z,1
2017-04-19T00:02:41.209Z,1
2017-04-19T00:02:59.864Z,0.9
2017-04-19T00:03:18.526Z,0.9
2017-04-19T00:03:37.275Z,0.9
2017-04-19T00:03:55.918Z,0.9
2017-04-19T00:04:14.580Z,0.9
2017-04-19T00:04:33.213Z,0.9
2017-04-19T00:04:51.847Z,0.9
2017-04-19T00:05:10.484Z,0.9
2017-04-19T00:05:29.117Z,0.9
2017-04-19T00:05:47.760Z,0.9
2017-04-19T00:06:06.397Z,0.9
2017-04-19T00:06:25.039Z,0.9
2017-04-19T00:06:43.675Z,0.9
2017-04-19T00:07:02.310Z,0.9
2017-04-19T00:07:20.953Z,0.9
2017-04-19T00:07:39.621Z,0.9
2017-04-19T00:07:58.276Z,0.9
2017-04-19T00:08:16.914Z,0.9
2017-04-19T00:08:35.556Z,0.9
2017-04-19T00:08:54.193Z,0.9
2017-04-19T00:09:12.904Z,0.9
2017-04-19T00:09:31.541Z,0.9
2017-04-19T00:09:50.180Z,0.9
2017-04-19T00:10:08.820Z,0.9
2017-04-19T00:10:27.453Z,0.8
2017-04-19T00:10:46.114Z,0.9
2017-04-19T00:11:04.756Z,0.9
2017-04-19T00:11:23.396Z,0.9
2017-04-19T00:11:42.037Z,0.9
2017-04-19T00:12:00.672Z,0.9
2017-04-19T00:12:19.315Z,1
2017-04-19T00:12:37.950Z,1
2017-04-19T00:12:56.589Z,0.9
2017-04-19T00:13:15.230Z,0.9
2017-04-19T00:13:33.863Z,1
2017-04-19T00:13:52.500Z,0.9
2017-04-19T00:14:11.169Z,0.9
2017-04-19T00:14:29.816Z,0.9
2017-04-19T00:14:48.454Z,0.9
2017-04-19T00:15:07.092Z,0.9
2017-04-19T00:15:25.724Z,0.9
2017-04-19T00:15:44.357Z,0.9
2017-04-19T00:16:02.994Z,0.9
2017-04-19T00:16:21.626Z,1
2017-04-19T00:16:40.261Z,0.9
2017-04-19T00:16:58.896Z,0.9
2017-04-19T00:17:17.529Z,0.9
2017-04-19T00:17:36.193Z,0.9
2017-04-19T00:17:54.828Z,0.9
2017-04-19T00:18:13.474Z,0.9
2017-04-19T00:18:32.110Z,0.9
2017-04-19T00:18:50.749Z,0.9
2017-04-19T00:19:09.386Z,0.9
2017-04-19T00:19:28.026Z,0.9
2017-04-19T00:19:46.688Z,0.9
2017-04-19T00:20:05.326Z,0.9
2017-04-19T00:20:23.964Z,0.9
2017-04-19T00:20:42.600Z,0.9
2017-04-19T00:21:01.257Z,0.9
2017-04-19T00:21:19.890Z,0.9
2017-04-19T00:21:38.523Z,0.9
2017-04-19T00:21:57.160Z,0.9
2017-04-19T00:22:15.793Z,0.9
2017-04-19T00:22:34.463Z,0.9
2017-04-19T00:22:53.105Z,0.9
2017-04-19T00:23:11.783Z,0.9
2017-04-19T00:23:30.420Z,0.9
2017-04-19T00:23:49.060Z,0.9
2017-04-19T00:24:07.691Z,0.9
2017-04-19T00:24:26.328Z,0.9
2017-04-19T00:24:44.966Z,0.9
2017-04-19T00:25:03.609Z,0.9
2017-04-19T00:25:22.278Z,0.9
2017-04-19T00:25:40.950Z,0.9
2017-04-19T00:25:59.592Z,0.9
2017-04-19T00:26:18.237Z,0.9
2017-04-19T00:26:36.873Z,0.9
2017-04-19T00:26:55.506Z,0.9
2017-04-19T00:27:14.149Z,0.9
2017-04-19T00:27:32.783Z,0.9
2017-04-19T00:27:51.453Z,0.9
2017-04-19T00:28:10.103Z,0.9
2017-04-19T00:28:28.746Z,0.9
2017-04-19T00:28:47.388Z,0.8
2017-04-19T00:29:06.050Z,0.9
2017-04-19T00:29:24.685Z,0.9
2017-04-19T00:29:43.342Z,0.9
2017-04-19T00:30:01.976Z,0.9
2017-04-19T00:30:20.635Z,0.9
2017-04-19T00:30:39.269Z,0.9
2017-04-19T00:30:57.909Z,0.9
2017-04-19T00:31:16.547Z,0.9
2017-04-19T00:31:35.192Z,0.9
2017-04-19T00:31:53.827Z,0.9
2017-04-19T00:32:12.464Z,0.9
2017-04-19T00:32:31.128Z,0.9
2017-04-19T00:32:49.767Z,0.9
2017-04-19T00:33:08.415Z,0.9
2017-04-19T00:33:27.051Z,0.9
2017-04-19T00:33:45.687Z,0.9
2017-04-19T00:34:04.323Z,0.9
2017-04-19T00:34:22.961Z,0.9
2017-04-19T00:34:41.599Z,0.9
2017-04-19T00:35:00.237Z,0.9
2017-04-19T00:35:18.870Z,0.9
2017-04-19T00:35:37.531Z,0.9
2017-04-19T00:35:56.192Z,0.9
2017-04-19T00:36:14.905Z,0.9
2017-04-19T00:36:33.546Z,0.9
2017-04-19T00:36:52.188Z,0.9
2017-04-19T00:37:10.845Z,0.8
2017-04-19T00:37:29.490Z,0.9
2017-04-19T00:37:48.126Z,0.9
2017-04-19T00:38:06.764Z,0.8
2017-04-19T00:38:25.410Z,0.8
2017-04-19T00:38:44.050Z,0.9
2017-04-19T00:39:02.682Z,0.8
2017-04-19T00:39:21.316Z,0.8
2017-04-19T00:39:39.948Z,0.8
2017-04-19T00:39:58.587Z,0.9
2017-04-19T00:40:17.223Z,0.8
2017-04-19T00:40:35.872Z,0.8
2017-04-19T00:40:54.531Z,0.8
2017-04-19T00:41:13.171Z,0.8
2017-04-19T00:41:31.808Z,0.8
2017-04-19T00:41:50.446Z,0.8
2017-04-19T00:42:09.091Z,0.8
2017-04-19T00:42:27.729Z,0.8
2017-04-19T00:42:46.366Z,0.8
2017-04-19T00:43:05.007Z,0.8
2017-04-19T00:43:23.645Z,0.8
2017-04-19T00:43:42.280Z,0.8
2017-04-19T00:44:00.998Z,0.8
2017-04-19T00:44:19.633Z,0.8
2017-04-19T00:44:38.268Z,0.8
2017-04-19T00:44:56.906Z,0.8
2017-04-19T00:45:15.539Z,0.8
2017-04-19T00:45:34.186Z,0.8
2017-04-19T00:45:52.833Z,0.8
2017-04-19T00:46:11.504Z,0.8
2017-04-19T00:46:30.143Z,0.8
2017-04-19T00:46:48.777Z,0.9
2017-04-19T00:47:07.414Z,0.9
2017-04-19T00:47:26.080Z,0.8
2017-04-19T00:47:44.717Z,0.8
2017-04-19T00:48:03.356Z,0.8
2017-04-19T00:48:21.987Z,0.8
2017-04-19T00:48:40.617Z,0.8
2017-04-19T00:48:59.256Z,0.8
2017-04-19T00:49:17.890Z,0.8
2017-04-19T00:49:36.527Z,0.8
2017-04-19T00:49:55.161Z,0.8
2017-04-19T00:50:13.802Z,0.8
2017-04-19T00:50:32.437Z,0.7
2017-04-19T00:50:51.100Z,0.7
2017-04-19T00:51:09.739Z,0.7
2017-04-19T00:51:28.381Z,0.7
2017-04-19T00:51:47.022Z,0.7
2017-04-19T00:52:05.661Z,0.7
2017-04-19T00:52:24.318Z,0.7
2017-04-19T00:52:42.951Z,0.7
2017-04-19T00:53:01.589Z,0.7
2017-04-19T00:53:20.225Z,0.7
2017-04-19T00:53:38.886Z,0.7
2017-04-19T00:53:57.526Z,0.7
2017-04-19T00:54:16.166Z,0.7
2017-04-19T00:54:34.801Z,0.8
2017-04-19T00:54:53.438Z,0.7
2017-04-19T00:55:12.085Z,0.7
2017-04-19T00:55:30.725Z,0.7
2017-04-19T00:55:49.392Z,0.7
2017-04-19T00:56:08.030Z,0.8
2017-04-19T00:56:26.663Z,0.8
2017-04-19T00:56:45.327Z,0.8
2017-04-19T00:57:03.969Z,0.8
2017-04-19T00:57:22.602Z,0.8
2017-04-19T00:57:41.240Z,0.8
2017-04-19T00:57:59.881Z,0.8
2017-04-19T00:58:18.520Z,0.8
2017-04-19T00:58:37.158Z,0.8
2017-04-19T00:58:55.816Z,0.8
2017-04-19T00:59:14.457Z,0.8
2017-04-19T00:59:33.092Z,0.8
2017-04-19T00:59:51.766Z,0.7
2017-04-19T01:00:10.406Z,0.7
2017-04-19T01:00:29.042Z,0.7
2017-04-19T01:00:47.680Z,0.7
2017-04-19T01:01:06.325Z,0.7
2017-04-19T01:01:24.962Z,0.7
2017-04-19T01:01:43.603Z,0.7
2017-04-19T01:02:02.248Z,0.7
2017-04-19T01:02:20.922Z,0.7
2017-04-19T01:02:39.559Z,0.7
2017-04-19T01:02:58.193Z,0.7
2017-04-19T01:03:16.829Z,0.7
2017-04-19T01:03:35.465Z,0.7
2017-04-19T01:03:54.118Z,0.7
2017-04-19T01:04:12.761Z,0.7
2017-04-19T01:04:31.399Z,0.7
2017-04-19T01:04:50.039Z,0.7
2017-04-19T01:05:08.683Z,0.7
2017-04-19T01:05:27.322Z,0.7
2017-04-19T01:05:45.983Z,0.7
2017-04-19T01:06:04.615Z,0.7
2017-04-19T01:06:23.252Z,0.7
2017-04-19T01:06:41.889Z,0.7
2017-04-19T01:07:00.526Z,0.7
2017-04-19T01:07:19.192Z,0.7
2017-04-19T01:07:37.830Z,0.7
2017-04-19T01:07:56.464Z,0.7
2017-04-19T01:08:15.095Z,0.7
2017-04-19T01:08:33.733Z,0.7
2017-04-19T01:08:52.397Z,0.7
2017-04-19T01:09:11.059Z,0.7
2017-04-19T01:09:29.698Z,0.7
2017-04-19T01:09:48.334Z,0.7
2017-04-19T01:10:06.972Z,0.7
2017-04-19T01:10:25.609Z,0.8
2017-04-19T01:10:44.278Z,0.7
2017-04-19T01:11:02.913Z,0.7
2017-04-19T01:11:21.547Z,0.7
2017-04-19T01:11:40.183Z,0.7
2017-04-19T01:11:58.833Z,0.7
2017-04-19T01:12:17.469Z,0.7
2017-04-19T01:12:36.119Z,0.7
2017-04-19T01:12:54.756Z,0.7
2017-04-19T01:13:13.392Z,0.7
2017-04-19T01:13:32.033Z,0.7
2017-04-19T01:13:50.680Z,0.7
2017-04-19T01:14:09.338Z,0.7
2017-04-19T01:14:27.975Z,0.7
2017-04-19T01:14:46.612Z,0.7
2017-04-19T01:15:05.247Z,0.7
2017-04-19T01:15:23.882Z,0.7
2017-04-19T01:15:42.521Z,0.7
2017-04-19T01:16:01.153Z,0.7
2017-04-19T01:16:19.787Z,0.7
2017-04-19T01:16:38.426Z,0.7
2017-04-19T01:16:57.061Z,0.7
2017-04-19T01:17:15.711Z,0.7
2017-04-19T01:17:34.344Z,0.7
2017-04-19T01:17:53.005Z,0.7
2017-04-19T01:18:11.651Z,0.7
2017-04-19T01:18:30.287Z,0.7
2017-04-19T01:18:48.933Z,0.7
2017-04-19T01:19:07.571Z,0.7
2017-04-19T01:19:26.209Z,0.7
2017-04-19T01:19:44.847Z,0.7
2017-04-19T01:20:03.487Z,0.7
2017-04-19T01:20:22.122Z,0.7
2017-04-19T01:20:40.779Z,0.7
2017-04-19T01:20:59.415Z,0.7
2017-04-19T01:21:18.049Z,0.7
2017-04-19T01:21:36.689Z,0.7
2017-04-19T01:21:55.323Z,0.7
2017-04-19T01:22:13.965Z,0.7
2017-04-19T01:22:32.626Z,0.7
2017-04-19T01:22:51.272Z,0.7
2017-04-19T01:23:09.965Z,0.7
2017-04-19T01:23:28.609Z,0.7
2017-04-19T01:23:47.247Z,0.7
2017-04-19T01:24:05.918Z,0.7
2017-04-19T01:24:24.556Z,0.6
2017-04-19T01:24:43.192Z,0.6
2017-04-19T01:25:01.828Z,0.6
2017-04-19T01:25:20.467Z,0.6
2017-04-19T01:25:39.109Z,0.6
2017-04-19T01:25:57.748Z,0.6
2017-04-19T01:26:16.388Z,0.6
2017-04-19T01:26:35.026Z,0.6
2017-04-19T01:26:53.667Z,0.6
2017-04-19T01:27:12.300Z,0.6
2017-04-19T01:27:30.959Z,0.6
2017-04-19T01:27:49.591Z,0.6
2017-04-19T01:28:08.225Z,0.6
2017-04-19T01:28:26.889Z,0.6
2017-04-19T01:28:45.523Z,0.6
2017-04-19T01:29:04.197Z,0.6
2017-04-19T01:29:22.835Z,0.6
2017-04-19T01:29:41.471Z,0.6
2017-04-19T01:30:00.112Z,0.6
2017-04-19T01:30:18.750Z,0.6
2017-04-19T01:30:37.389Z,0.6
2017-04-19T01:30:56.035Z,0.6
2017-04-19T01:31:14.677Z,0.6
2017-04-19T01:31:33.315Z,0.6
2017-04-19T01:31:51.952Z,0.6
2017-04-19T01:32:10.602Z,0.6
2017-04-19T01:32:29.260Z,0.7
2017-04-19T01:32:47.899Z,0.7
2017-04-19T01:33:06.538Z,0.7
2017-04-19T01:33:25.172Z,0.7
2017-04-19T01:33:43.819Z,0.7
2017-04-19T01:34:02.456Z,0.7
2017-04-19T01:34:21.093Z,0.7
2017-04-19T01:34:39.724Z,0.7
2017-04-19T01:34:58.360Z,0.7
2017-04-19T01:35:16.998Z,0.7
2017-04-19T01:35:35.654Z,0.7
2017-04-19T01:35:54.292Z,0.6
2017-04-19T01:36:12.921Z,0.6
2017-04-19T01:36:31.556Z,0.6
2017-04-19T01:36:50.190Z,0.6
2017-04-19T01:37:08.823Z,0.6
2017-04-19T01:37:27.457Z,0.6
2017-04-19T01:37:46.088Z,0.6
2017-04-19T01:38:04.719Z,0.6
2017-04-19T01:38:23.355Z,0.6
2017-04-19T01:38:42.238Z,0.6
2017-04-19T01:39:00.932Z,0.6
2017-04-19T01:39:19.587Z,0.6
2017-04-19T01:39:38.230Z,0.6
2017-04-19T01:39:56.869Z,0.6
2017-04-19T01:40:15.505Z,0.6
2017-04-19T01:40:34.169Z,0.6
2017-04-19T01:40:52.807Z,0.6
2017-04-19T01:41:11.448Z,0.6
2017-04-19T01:41:30.083Z,0.6
2017-04-19T01:41:48.723Z,0.6
2017-04-19T01:42:07.362Z,0.6
2017-04-19T01:42:25.993Z,0.6
2017-04-19T01:42:44.630Z,0.6
2017-04-19T01:43:03.266Z,0.6
2017-04-19T01:43:21.905Z,0.6
2017-04-19T01:43:40.548Z,0.6
2017-04-19T01:43:59.212Z,0.6
2017-04-19T01:44:17.916Z,0.6
2017-04-19T01:44:36.553Z,0.6
2017-04-19T01:44:55.187Z,0.5
2017-04-19T01:45:13.823Z,0.6
2017-04-19T01:45:32.456Z,0.6
2017-04-19T01:45:51.091Z,0.6
2017-04-19T01:46:09.733Z,0.6
2017-04-19T01:46:28.370Z,0.6
2017-04-19T01:46:47.007Z,0.6
2017-04-19T01:47:05.668Z,0.6
2017-04-19T01:47:24.305Z,0.6
2017-04-19T01:47:42.946Z,0.6
2017-04-19T01:48:01.586Z,0.6
2017-04-19T01:48:20.224Z,0.6
2017-04-19T01:48:38.858Z,0.6
2017-04-19T01:48:57.487Z,0.6
2017-04-19T01:49:16.129Z,0.6
2017-04-19T01:49:34.797Z,0.6
2017-04-19T01:49:53.446Z,0.6
2017-04-19T01:50:12.082Z,0.6
2017-04-19T01:50:30.743Z,0.6
2017-04-19T01:50:49.383Z,0.6
2017-04-19T01:51:08.023Z,0.6
2017-04-19T01:51:26.668Z,0.6
2017-04-19T01:51:45.308Z,0.6
2017-04-19T01:52:03.945Z,0.6
2017-04-19T01:52:22.590Z,0.5
2017-04-19T01:52:41.238Z,0.5
2017-04-19T01:52:59.876Z,0.5
2017-04-19T01:53:18.513Z,0.5
2017-04-19T01:53:37.149Z,0.5
2017-04-19T01:53:55.812Z,0.5
2017-04-19T01:54:14.447Z,0.5
2017-04-19T01:54:33.105Z,0.5
2017-04-19T01:54:51.755Z,0.5
2017-04-19T01:55:10.391Z,0.4
2017-04-19T01:55:29.036Z,0.5
2017-04-19T01:55:47.673Z,0.5
2017-04-19T01:56:06.311Z,0.5
2017-04-19T01:56:24.949Z,0.4
2017-04-19T01:56:43.583Z,0.5
2017-04-19T01:57:02.223Z,0.5
2017-04-19T01:57:20.875Z,0.5
2017-04-19T01:57:39.515Z,0.5
2017-04-19T01:57:58.155Z,0.4
2017-04-19T01:58:16.797Z,0.5
2017-04-19T01:58:35.438Z,0.5
2017-04-19T01:58:54.102Z,0.5
2017-04-19T01:59:12.746Z,0.5
2017-04-19T01:59:31.382Z,0.5
2017-04-19T01:59:50.019Z,0.4
2017-04-19T02:00:08.688Z,0.4
2017-04-19T02:00:27.324Z,0.5
2017-04-19T02:00:45.974Z,0.4
2017-04-19T02:01:04.639Z,0.5
2017-04-19T02:01:23.283Z,0.5
2017-04-19T02:01:41.920Z,0.5
2017-04-19T02:02:00.577Z,0.5
2017-04-19T02:02:19.214Z,0.5
2017-04-19T02:02:37.852Z,0.5
2017-04-19T02:02:56.486Z,0.5
2017-04-19T02:03:15.120Z,0.5
2017-04-19T02:03:33.761Z,0.5
2017-04-19T02:03:52.401Z,0.5
2017-04-19T02:04:11.039Z,0.5
2017-04-19T02:04:29.759Z,0.5
2017-04-19T02:04:48.397Z,0.5
2017-04-19T02:05:07.029Z,0.5
2017-04-19T02:05:25.699Z,0.5
2017-04-19T02:05:44.331Z,0.5
2017-04-19T02:06:02.967Z,0.5
2017-04-19T02:06:21.607Z,0.5
2017-04-19T02:06:40.241Z,0.5
2017-04-19T02:06:58.880Z,0.5
2017-04-19T02:07:17.513Z,0.4
2017-04-19T02:07:36.142Z,0.5
2017-04-19T02:07:54.780Z,0.5
2017-04-19T02:08:13.423Z,0.5
2017-04-19T02:08:32.065Z,0.5
2017-04-19T02:08:50.724Z,0.5
2017-04-19T02:09:09.366Z,0.5
2017-04-19T02:09:28.004Z,0.5
2017-04-19T02:09:46.663Z,0.5
2017-04-19T02:10:05.294Z,0.5
2017-04-19T02:10:23.925Z,0.4
2017-04-19T02:10:42.589Z,0.5
2017-04-19T02:11:01.227Z,0.5
2017-04-19T02:11:19.865Z,0.5
2017-04-19T02:11:38.508Z,0.5
2017-04-19T02:11:57.142Z,0.5
2017-04-19T02:12:15.798Z,0.5
2017-04-19T02:12:34.436Z,0.6
2017-04-19T02:12:53.071Z,0.5
2017-04-19T02:13:11.701Z,0.5
2017-04-19T02:13:30.334Z,0.5
2017-04-19T02:13:49.014Z,0.5
2017-04-19T02:14:07.651Z,0.5
2017-04-19T02:14:26.287Z,0.5
2017-04-19T02:14:44.920Z,0.5
2017-04-19T02:15:03.557Z,0.5
2017-04-19T02:15:22.206Z,0.5
2017-04-19T02:15:40.851Z,0.5
2017-04-19T02:15:59.499Z,0.5
2017-04-19T02:16:18.136Z,0.5
2017-04-19T02:16:36.771Z,0.5
2017-04-19T02:16:55.414Z,0.5
2017-04-19T02:17:14.074Z,0.5
2017-04-19T02:17:32.715Z,0.5
2017-04-19T02:17:51.354Z,0.5
2017-04-19T02:18:09.988Z,0.5
2017-04-19T02:18:28.625Z,0.5
2017-04-19T02:18:47.264Z,0.5
2017-04-19T02:19:05.898Z,0.5
2017-04-19T02:19:24.529Z,0.5
2017-04-19T02:19:43.164Z,0.5
2017-04-19T02:20:01.808Z,0.5
2017-04-19T02:20:20.455Z,0.5
2017-04-19T02:20:39.088Z,0.5
2017-04-19T02:20:57.721Z,0.5
2017-04-19T02:21:16.380Z,0.5
2017-04-19T02:21:35.019Z,0.5
2017-04-19T02:21:53.661Z,0.5
2017-04-19T02:22:12.295Z,0.5
2017-04-19T02:22:30.937Z,0.5
2017-04-19T02:22:49.576Z,0.5
2017-04-19T02:23:08.216Z,0.5
2017-04-19T02:23:26.853Z,0.5
2017-04-19T02:23:45.515Z,0.5
2017-04-19T02:24:04.157Z,0.5
2017-04-19T02:24:22.793Z,0.5
2017-04-19T02:24:41.659Z,0.5
2017-04-19T02:25:00.323Z,0.5
2017-04-19T02:25:18.991Z,0.5
2017-04-19T02:25:37.628Z,0.5
2017-04-19T02:25:56.270Z,0.5
2017-04-19T02:26:14.907Z,0.5
2017-04-19T02:26:33.551Z,0.5
2017-04-19T02:26:52.185Z,0.5
2017-04-19T02:27:10.816Z,0.5
2017-04-19T02:27:29.451Z,0.5
2017-04-19T02:27:48.083Z,0.5
2017-04-19T02:28:06.716Z,0.5
2017-04-19T02:28:25.368Z,0.5
2017-04-19T02:28:44.021Z,0.5
2017-04-19T02:29:02.659Z,0.5
2017-04-19T02:29:21.307Z,0.5
2017-04-19T02:29:39.948Z,0.5
2017-04-19T02:29:58.585Z,0.5
2017-04-19T02:30:17.222Z,0.5
2017-04-19T02:30:35.861Z,0.5
2017-04-19T02:30:54.494Z,0.5
2017-04-19T02:31:13.130Z,0.5
2017-04-19T02:31:31.764Z,0.5
2017-04-19T02:31:50.431Z,0.5
2017-04-19T02:32:09.066Z,0.5
2017-04-19T02:32:27.699Z,0.5
2017-04-19T02:32:46.337Z,0.5
2017-04-19T02:33:04.970Z,0.5
2017-04-19T02:33:23.614Z,0.5
2017-04-19T02:33:42.250Z,0.5
2017-04-19T02:34:00.891Z,0.5
2017-04-19T02:34:19.534Z,0.5
2017-04-19T02:34:38.167Z,0.5
2017-04-19T02:34:56.806Z,0.4
2017-04-19T02:35:15.465Z,0.4
2017-04-19T02:35:34.102Z,0.4
2017-04-19T02:35:52.840Z,0.4
2017-04-19T02:36:11.478Z,0.4
2017-04-19T02:36:30.110Z,0.4
2017-04-19T02:36:48.745Z,0.4
2017-04-19T02:37:07.408Z,0.4
2017-04-19T02:37:26.040Z,0.4
2017-04-19T02:37:44.672Z,0.4
2017-04-19T02:38:03.306Z,0.4
2017-04-19T02:38:21.944Z,0.4
2017-04-19T02:38:40.608Z,0.4
2017-04-19T02:38:59.249Z,0.4
2017-04-19T02:39:18.178Z,0.5
2017-04-19T02:39:36.822Z,0.5
2017-04-19T02:39:55.484Z,0.4
2017-04-19T02:40:14.130Z,0.4
2017-04-19T02:40:32.764Z,0.4
2017-04-19T02:40:51.400Z,0.4
2017-04-19T02:41:10.035Z,0.4
2017-04-19T02:41:28.670Z,0.4
2017-04-19T02:41:47.304Z,0.4
2017-04-19T02:42:05.944Z,0.4
2017-04-19T02:42:24.602Z,0.5
2017-04-19T02:42:43.236Z,0.5
2017-04-19T02:43:01.878Z,0.5
2017-04-19T02:43:20.548Z,0.5
2017-04-19T02:43:39.186Z,0.5
2017-04-19T02:43:57.826Z,0.5
2017-04-19T02:44:16.467Z,0.5
2017-04-19T02:44:35.101Z,0.5
2017-04-19T02:44:53.737Z,0.5
2017-04-19T02:45:12.373Z,0.5
2017-04-19T02:45:31.012Z,0.5
2017-04-19T02:45:49.651Z,0.5
2017-04-19T02:46:08.285Z,0.5
2017-04-19T02:46:26.927Z,0.5
2017-04-19T02:46:45.595Z,0.5
2017-04-19T02:47:04.233Z,0.4
2017-04-19T02:47:22.871Z,0.4
2017-04-19T02:47:41.539Z,0.4
2017-04-19T02:48:00.175Z,0.4
2017-04-19T02:48:18.842Z,0.4
2017-04-19T02:48:37.474Z,0.4
2017-04-19T02:48:56.111Z,0.5
2017-04-19T02:49:14.743Z,0.5
2017-04-19T02:49:33.373Z,0.5
2017-04-19T02:49:52.017Z,0.4
2017-04-19T02:50:10.662Z,0.4
2017-04-19T02:50:29.344Z,0.4
2017-04-19T02:50:47.981Z,0.4
2017-04-19T02:51:06.624Z,0.4
2017-04-19T02:51:25.273Z,0.4
2017-04-19T02:51:43.932Z,0.4
2017-04-19T02:52:02.574Z,0.4
2017-04-19T02:52:21.214Z,0.4
2017-04-19T02:52:39.849Z,0.4
2017-04-19T02:52:58.495Z,0.3
2017-04-19T02:53:17.131Z,0.3
2017-04-19T02:53:35.774Z,0.3
2017-04-19T02:53:54.409Z,0.3
2017-04-19T02:54:13.045Z,0.3
2017-04-19T02:54:31.690Z,0.3
2017-04-19T02:54:50.353Z,0.3
2017-04-19T02:55:08.985Z,0.3
2017-04-19T02:55:27.646Z,0.3
2017-04-19T02:55:46.287Z,0.3
2017-04-19T02:56:04.922Z,0.3
2017-04-19T02:56:23.562Z,0.4
2017-04-19T02:56:42.196Z,0.4
2017-04-19T02:57:00.836Z,0.4
2017-04-19T02:57:19.473Z,0.4
2017-04-19T02:57:38.111Z,0.4
2017-04-19T02:57:56.747Z,0.4
2017-04-19T02:58:15.438Z,0.4
2017-04-19T02:58:34.076Z,0.4
2017-04-19T02:58:52.712Z,0.4
2017-04-19T02:59:11.347Z,0.4
2017-04-19T02:59:29.980Z,0.4
2017-04-19T02:59:48.611Z,0.4
2017-04-19T03:00:07.245Z,0.3
2017-04-19T03:00:25.883Z,0.4
2017-04-19T03:00:44.520Z,0.3
2017-04-19T03:01:03.160Z,0.3
2017-04-19T03:01:21.802Z,0.4
2017-04-19T03:01:40.474Z,0.3
2017-04-19T03:01:59.115Z,0.3
2017-04-19T03:02:17.749Z,0.3
2017-04-19T03:02:36.382Z,0.3
2017-04-19T03:02:55.020Z,0.3
2017-04-19T03:03:13.658Z,0.3
2017-04-19T03:03:32.297Z,0.3
2017-04-19T03:03:50.927Z,0.3
2017-04-19T03:04:09.559Z,0.3
2017-04-19T03:04:28.197Z,0.3
2017-04-19T03:04:46.834Z,0.3
2017-04-19T03:05:05.498Z,0.3
2017-04-19T03:05:24.132Z,0.3
2017-04-19T03:05:42.769Z,0.3
2017-04-19T03:06:01.408Z,0.2
2017-04-19T03:06:20.047Z,0.2
2017-04-19T03:06:38.686Z,0.3
2017-04-19T03:06:57.322Z,0.2
2017-04-19T03:07:15.989Z,0.3
2017-04-19T03:07:34.630Z,0.3
2017-04-19T03:07:53.268Z,0.3
2017-04-19T03:08:11.904Z,0.3
2017-04-19T03:08:30.554Z,0.2
2017-04-19T03:08:49.215Z,0.2
2017-04-19T03:09:07.856Z,0.3
2017-04-19T03:09:26.493Z,0.3
2017-04-19T03:09:45.127Z,0.2
2017-04-19T03:10:03.793Z,0.2
2017-04-19T03:10:22.427Z,0.2
2017-04-19T03:10:41.095Z,0.2
2017-04-19T03:10:59.731Z,0.2
2017-04-19T03:11:18.364Z,0.2
2017-04-19T03:11:37.002Z,0.2
2017-04-19T03:11:55.637Z,0.2
2017-04-19T03:12:14.280Z,0.2
2017-04-19T03:12:32.916Z,0.2
2017-04-19T03:12:51.555Z,0.2
2017-04-19T03:13:10.214Z,0.2
2017-04-19T03:13:28.854Z,0.2
2017-04-19T03:13:47.489Z,0.2
2017-04-19T03:14:06.171Z,0.2
2017-04-19T03:14:24.802Z,0.2
2017-04-19T03:14:43.441Z,0.2
2017-04-19T03:15:02.077Z,0.2
2017-04-19T03:15:20.714Z,0.2
2017-04-19T03:15:39.348Z,0.2
2017-04-19T03:15:57.977Z,0.2
2017-04-19T03:16:16.616Z,0.2
2017-04-19T03:16:35.276Z,0.2
2017-04-19T03:16:53.911Z,0.2
2017-04-19T03:17:12.551Z,0.2
2017-04-19T03:17:31.189Z,0.2
2017-04-19T03:17:49.830Z,0.2
2017-04-19T03:18:08.464Z,0.2
2017-04-19T03:18:27.105Z,0.2
2017-04-19T03:18:45.738Z,0.2
2017-04-19T03:19:04.376Z,0.2
2017-04-19T03:19:23.043Z,0.2
2017-04-19T03:19:41.688Z,0.2
2017-04-19T03:20:00.345Z,0.2
2017-04-19T03:20:18.984Z,0.2
2017-04-19T03:20:37.620Z,0.2
2017-04-19T03:20:56.254Z,0.2
2017-04-19T03:21:14.894Z,0.2
2017-04-19T03:21:33.531Z,0.2
2017-04-19T03:21:52.170Z,0.2
2017-04-19T03:22:10.805Z,0.2
2017-04-19T03:22:29.441Z,0.2
2017-04-19T03:22:48.078Z,0.2
2017-04-19T03:23:06.719Z,0.2
2017-04-19T03:23:25.393Z,0.2
2017-04-19T03:23:44.034Z,0.2
2017-04-19T03:24:02.677Z,0.2
2017-04-19T03:24:21.315Z,0.2
2017-04-19T03:24:39.975Z,0.2
2017-04-19T03:24:58.614Z,0.2
2017-04-19T03:25:17.250Z,0.2
2017-04-19T03:25:35.888Z,0.2
2017-04-19T03:25:54.528Z,0.2
2017-04-19T03:26:13.162Z,0.2
2017-04-19T03:26:31.800Z,0.2
2017-04-19T03:26:50.470Z,0.2
2017-04-19T03:27:09.107Z,0.3
2017-04-19T03:27:27.748Z,0.3
2017-04-19T03:27:46.393Z,0.3
2017-04-19T03:28:05.032Z,0.3
2017-04-19T03:28:23.700Z,0.3
2017-04-19T03:28:42.334Z,0.2
2017-04-19T03:29:00.982Z,0.3
2017-04-19T03:29:19.617Z,0.2
2017-04-19T03:29:38.251Z,0.2
2017-04-19T03:29:56.913Z,0.2
2017-04-19T03:30:15.551Z,0.2
2017-04-19T03:30:34.196Z,0.2
2017-04-19T03:30:52.835Z,0.2
2017-04-19T03:31:11.479Z,0.3
2017-04-19T03:31:30.128Z,0.3
2017-04-19T03:31:48.771Z,0.3
2017-04-19T03:32:07.411Z,0.2
2017-04-19T03:32:26.045Z,0.2
2017-04-19T03:32:44.683Z,0.2
2017-04-19T03:33:03.320Z,0.2
2017-04-19T03:33:21.954Z,0.2
2017-04-19T03:33:40.594Z,0.2
2017-04-19T03:33:59.237Z,0.2
2017-04-19T03:34:17.877Z,0.2
2017-04-19T03:34:36.524Z,0.2
2017-04-19T03:34:55.188Z,0.2
2017-04-19T03:35:13.831Z,0.2
2017-04-19T03:35:32.468Z,0.2
2017-04-19T03:35:51.107Z,0.2
2017-04-19T03:36:09.742Z,0.2
2017-04-19T03:36:28.379Z,0.2
2017-04-19T03:36:47.018Z,0.2
2017-04-19T03:37:05.655Z,0.2
2017-04-19T03:37:24.289Z,0.2
2017-04-19T03:37:42.927Z,0.2
2017-04-19T03:38:01.563Z,0.2
2017-04-19T03:38:20.231Z,0.2
2017-04-19T03:38:38.867Z,0.2
2017-04-19T03:38:57.498Z,0.2
2017-04-19T03:39:16.135Z,0.2
2017-04-19T03:39:34.771Z,0.2
2017-04-19T03:39:53.403Z,0.2
2017-04-19T03:40:12.044Z,0.2
2017-04-19T03:40:30.704Z,0.2
2017-04-19T03:40:49.335Z,0.2
2017-04-19T03:41:07.990Z,0.2
2017-04-19T03:41:26.624Z,0.2
2017-04-19T03:41:45.287Z,0.2
2017-04-19T03:42:03.918Z,0.2
2017-04-19T03:42:22.559Z,0.2
2017-04-19T03:42:41.202Z,0.2
2017-04-19T03:42:59.841Z,0.3
2017-04-19T03:43:18.476Z,0.3
2017-04-19T03:43:37.110Z,0.3
2017-04-19T03:43:55.749Z,0.3
2017-04-19T03:44:14.386Z,0.3
2017-04-19T03:44:33.026Z,0.3
2017-04-19T03:44:51.662Z,0.3
2017-04-19T03:45:10.327Z,0.3
2017-04-19T03:45:28.968Z,0.3
2017-04-19T03:45:47.613Z,0.3
2017-04-19T03:46:06.248Z,0.2
2017-04-19T03:46:24.882Z,0.2
2017-04-19T03:46:43.521Z,0.2
2017-04-19T03:47:02.159Z,0.2
2017-04-19T03:47:20.794Z,0.2
2017-04-19T03:47:39.430Z,0.2
2017-04-19T03:47:58.065Z,0.2
2017-04-19T03:48:16.703Z,0.2
2017-04-19T03:48:35.366Z,0.2
2017-04-19T03:48:54.004Z,0.2
2017-04-19T03:49:12.641Z,0.2
2017-04-19T03:49:31.273Z,0.2
2017-04-19T03:49:49.911Z,0.2
2017-04-19T03:50:08.588Z,0.2
2017-04-19T03:50:27.236Z,0.2
2017-04-19T03:50:45.867Z,0.2
2017-04-19T03:51:04.526Z,0.2
2017-04-19T03:51:23.158Z,0.2
2017-04-19T03:51:41.797Z,0.2
2017-04-19T03:52:00.436Z,0.2
2017-04-19T03:52:19.085Z,0.2
2017-04-19T03:52:37.723Z,0.1
2017-04-19T03:52:56.364Z,0.1
2017-04-19T03:53:15.014Z,0.1
2017-04-19T03:53:33.667Z,0.1
2017-04-19T03:53:52.304Z,0.1
2017-04-19T03:54:10.946Z,0.1
2017-04-19T03:54:29.587Z,0.1
2017-04-19T03:54:48.229Z,0.1
2017-04-19T03:55:06.863Z,0.1
2017-04-19T03:55:25.502Z,0.1
2017-04-19T03:55:44.135Z,0.1
2017-04-19T03:56:02.766Z,0.1
2017-04-19T03:56:21.436Z,0.1
2017-04-19T03:56:40.090Z,0.1
2017-04-19T03:56:58.726Z,0.1
2017-04-19T03:57:17.362Z,0.1
2017-04-19T03:57:35.999Z,0.1
2017-04-19T03:57:54.637Z,0.1
2017-04-19T03:58:13.275Z,0
2017-04-19T03:58:31.911Z,0.1
2017-04-19T03:58:50.546Z,0
2017-04-19T03:59:09.182Z,0
2017-04-19T03:59:27.819Z,0
2017-04-19T03:59:46.460Z,0
2017-04-19T04:00:05.140Z,0
2017-04-19T04:00:23.782Z,0
2017-04-19T04:00:42.416Z,0
2017-04-19T04:01:01.061Z,0
2017-04-19T04:01:19.711Z,0
2017-04-19T04:01:38.384Z,-0.1
2017-04-19T04:01:57.034Z,-0.1
2017-04-19T04:02:15.685Z,-0.1
2017-04-19T04:02:34.344Z,-0.1
2017-04-19T04:02:53.001Z,-0.1
2017-04-19T04:03:11.654Z,-0.1
2017-04-19T04:03:30.369Z,-0.1
2017-04-19T04:03:49.025Z,-0.1
2017-04-19T04:04:07.677Z,-0.1
2017-04-19T04:04:26.325Z,-0.1
2017-04-19T04:04:44.985Z,-0.1
2017-04-19T04:05:03.642Z,-0.1
2017-04-19T04:05:22.292Z,-0.2
2017-04-19T04:05:40.947Z,-0.1
2017-04-19T04:05:59.597Z,-0.1
2017-04-19T04:06:18.248Z,-0.2
2017-04-19T04:06:36.925Z,-0.1
2017-04-19T04:06:55.588Z,-0.2
2017-04-19T04:07:14.240Z,-0.2
2017-04-19T04:07:32.901Z,-0.2
2017-04-19T04:07:51.554Z,-0.2
2017-04-19T04:08:10.231Z,-0.2
2017-04-19T04:08:28.882Z,-0.2
2017-04-19T04:08:47.536Z,-0.1
2017-04-19T04:09:06.187Z,-0.1
2017-04-19T04:09:24.838Z,-0.1
2017-04-19T04:09:43.525Z,-0.1
2017-04-19T04:10:02.173Z,-0.1
2017-04-19T04:10:20.823Z,-0.1
2017-04-19T04:10:39.473Z,-0.1
2017-04-19T04:10:58.123Z,-0.1
2017-04-19T04:11:16.776Z,-0.1
2017-04-19T04:11:35.455Z,-0.1
2017-04-19T04:11:54.113Z,-0.1
2017-04-19T04:12:12.783Z,-0.1
2017-04-19T04:12:31.446Z,-0.1
2017-04-19T04:12:50.133Z,-0.1
2017-04-19T04:13:08.788Z,-0.1
2017-04-19T04:13:27.440Z,-0.1
2017-04-19T04:13:46.095Z,-0.1
2017-04-19T04:14:04.743Z,-0.1
2017-04-19T04:14:23.394Z,-0.1
2017-04-19T04:14:42.048Z,-0.1
2017-04-19T04:15:00.704Z,-0.1
2017-04-19T04:15:19.357Z,-0.1
2017-04-19T04:15:38.008Z,-0.1
2017-04-19T04:15:56.693Z,-0.1
2017-04-19T04:16:15.350Z,-0.1
2017-04-19T04:16:34.002Z,-0.1